Time;durP1;ratioP1;P1;durP2;ratioP2;P2;SDS_P1;SDS_P2;PMS_P1;PMS_P2;Temp;Humidity;BMP_temperature;BMP_pressure;BME280_temperature;BME280_humidity;BME280_pressure;Samples;Min_cycle;Max_cycle;Signal;HPM_P1;HPM_P2
2023/04/09 00:01:33;;;;;;;17.53;10.17;;;;;;;8.04;80.65;101477.47;4905311;29;20058;-77
2023/04/09 00:03:58;;;;;;;15.13;9.50;;;;;;;8.20;80.52;101487.81;4911469;29;20684;-80
2023/04/09 00:06:26;;;;;;;15.50;9.95;;;;;;;8.18;80.53;101477.19;4921611;29;20047;-78
2023/04/09 00:08:53;;;;;;;16.67;9.90;;;;;;;8.20;80.62;101483.28;4914528;29;20075;-78
2023/04/09 00:11:19;;;;;;;14.23;9.20;;;;;;;8.27;80.35;101480.13;4920340;29;20097;-79
2023/04/09 00:13:45;;;;;;;15.05;9.65;;;;;;;8.41;80.67;101504.81;4911034;29;20039;-79
2023/04/09 00:16:12;;;;;;;16.77;9.82;;;;;;;8.46;80.45;101496.41;4912828;29;20048;-80
2023/04/09 00:18:37;;;;;;;14.75;9.65;;;;;;;8.49;80.29;101490.78;4924345;29;20149;-80
2023/04/09 00:21:03;;;;;;;15.02;9.85;;;;;;;8.53;79.96;101496.75;4918057;29;20086;-79
2023/04/09 00:23:28;;;;;;;15.07;9.55;;;;;;;8.27;80.12;101477.44;4944850;29;20047;-79
2023/04/09 00:25:54;;;;;;;19.92;9.55;;;;;;;8.29;80.73;101496.91;4906892;29;20074;-79
2023/04/09 00:28:21;;;;;;;14.98;9.43;;;;;;;8.34;80.37;101489.34;4904485;29;20157;-77
2023/04/09 00:30:49;;;;;;;7.20;4.28;;;;;;;8.39;78.82;101482.63;4937799;29;20039;-79
2023/04/09 00:33:14;;;;;;;9.65;6.10;;;;;;;8.39;78.77;101479.09;4937413;29;20050;-80
2023/04/09 00:35:40;;;;;;;11.38;7.20;;;;;;;8.48;78.94;101489.09;4913418;29;20047;-78
2023/04/09 00:38:07;;;;;;;13.82;8.80;;;;;;;8.50;79.61;101491.63;4918799;29;20119;-78
2023/04/09 00:40:33;;;;;;;14.32;9.20;;;;;;;8.35;79.68;101465.09;4906416;29;20070;-78
2023/04/09 00:42:59;;;;;;;19.73;8.55;;;;;;;8.59;79.63;101489.06;4939818;29;20040;-80
2023/04/09 00:45:25;;;;;;;13.20;7.88;;;;;;;8.68;79.19;101494.63;4923697;29;20058;-78
2023/04/09 00:47:54;;;;;;;13.77;8.35;;;;;;;8.72;78.76;101490.72;4904505;29;20436;-81
2023/04/09 00:50:20;;;;;;;14.07;8.30;;;;;;;8.71;78.35;101470.22;4919429;29;20043;-77
2023/04/09 00:52:47;;;;;;;12.57;7.47;;;;;;;8.84;77.98;101478.94;4918939;29;20495;-79
2023/04/09 00:55:12;;;;;;;16.42;7.88;;;;;;;8.77;78.41;101486.66;4926452;29;20091;-78
2023/04/09 00:57:39;;;;;;;12.50;8.27;;;;;;;8.82;78.40;101476.38;4940641;29;20552;-78
2023/04/09 01:00:07;;;;;;;12.13;7.38;;;;;;;8.64;79.05;101481.47;4931745;29;20071;-79
2023/04/09 01:02:38;;;;;;;11.93;7.78;;;;;;;8.45;79.37;101465.22;4926521;29;20349;-79
2023/04/09 01:05:05;;;;;;;10.73;6.93;;;;;;;8.65;78.67;101475.13;4921150;29;20047;-79
2023/04/09 01:07:56;;;;;;;10.15;6.63;;;;;;;8.74;78.00;101476.19;4936719;29;20054;-78
2023/04/09 01:10:43;;;;;;;18.42;11.43;;;;;;;8.57;78.61;101469.56;4936469;29;20189;-79
2023/04/09 01:13:15;;;;;;;36.38;22.75;;;;;;;8.50;78.14;101473.75;4917812;29;20134;-78
2023/04/09 01:16:01;;;;;;;38.08;23.83;;;;;;;8.64;77.95;101477.97;4923803;29;20417;-79
2023/04/09 01:18:35;;;;;;;39.70;22.92;;;;;;;8.57;78.14;101474.94;4921068;29;20100;-78
2023/04/09 01:21:15;;;;;;;25.35;15.35;;;;;;;8.65;77.53;101485.84;4907390;29;20051;-77
2023/04/09 01:24:02;;;;;;;23.63;14.60;;;;;;;8.76;77.27;101484.97;4934176;29;20055;-79
2023/04/09 01:26:45;;;;;;;28.05;16.60;;;;;;;8.64;77.23;101484.16;4943590;29;20051;-78
2023/04/09 01:29:14;;;;;;;34.95;19.42;;;;;;;8.47;77.81;101478.50;4939152;29;20039;-78
2023/04/09 01:31:41;;;;;;;34.20;19.02;;;;;;;8.40;78.71;101476.31;4923404;29;20134;-78
2023/04/09 01:34:08;;;;;;;29.63;18.55;;;;;;;8.39;78.19;101479.09;4914645;29;20400;-78
2023/04/09 01:36:34;;;;;;;32.78;17.83;;;;;;;8.41;77.90;101482.53;4915450;29;20043;-78
2023/04/09 01:39:02;;;;;;;28.33;16.45;;;;;;;8.38;77.50;101474.69;4914708;29;20146;-77
2023/04/09 01:41:31;;;;;;;26.58;15.63;;;;;;;8.45;77.47;101470.56;4896736;29;20048;-78
2023/04/09 01:43:56;;;;;;;16.40;10.10;;;;;;;8.41;77.10;101467.31;4912310;29;20501;-78
2023/04/09 01:46:26;;;;;;;14.48;8.75;;;;;;;8.47;76.82;101473.97;4929772;29;20083;-78
2023/04/09 01:48:54;;;;;;;22.10;13.23;;;;;;;8.39;77.12;101460.34;4925067;29;20492;-77
2023/04/09 01:51:21;;;;;;;22.23;14.15;;;;;;;8.38;77.64;101462.19;4939779;29;20134;-78
2023/04/09 01:53:47;;;;;;;23.88;14.48;;;;;;;8.12;78.58;101458.94;4942095;28;20055;-79
2023/04/09 01:56:13;;;;;;;23.88;14.30;;;;;;;8.11;78.98;101467.97;4928123;29;20039;-78
2023/04/09 01:58:42;;;;;;;27.83;14.40;;;;;;;8.16;78.55;101467.59;4942697;29;20062;-79
2023/04/09 02:01:23;;;;;;;24.27;14.68;;;;;;;8.18;78.57;101466.50;4952607;29;20055;-80
2023/04/09 02:04:19;;;;;;;34.35;14.80;;;;;;;8.07;78.67;101469.19;4937774;29;20047;-78
2023/04/09 02:06:54;;;;;;;29.98;14.57;;;;;;;8.06;78.63;101475.53;4947958;29;20131;-77
2023/04/09 02:09:21;;;;;;;26.10;14.57;;;;;;;8.02;78.65;101458.84;4963286;29;20043;-78
2023/04/09 02:11:50;;;;;;;26.05;15.23;;;;;;;7.93;78.79;101453.41;4919724;29;20036;-77
2023/04/09 02:14:18;;;;;;;27.45;15.68;;;;;;;7.86;79.59;101469.09;4937185;29;20047;-78
2023/04/09 02:16:44;;;;;;;34.78;18.27;;;;;;;7.71;79.43;101448.94;4918472;29;20070;-78
2023/04/09 02:19:10;;;;;;;34.90;21.23;;;;;;;7.75;79.79;101459.28;4926586;29;20142;-77
2023/04/09 02:21:36;;;;;;;34.10;20.58;;;;;;;7.77;79.78;101454.66;4935594;29;20050;-80
2023/04/09 02:24:05;;;;;;;32.15;19.70;;;;;;;7.52;80.03;101442.38;4934936;29;20585;-78
2023/04/09 02:26:32;;;;;;;34.88;19.42;;;;;;;7.54;80.10;101443.09;4944325;28;20147;-77
2023/04/09 02:28:59;;;;;;;33.58;18.25;;;;;;;7.61;80.13;101464.88;4924122;29;20078;-80
2023/04/09 02:31:24;;;;;;;28.90;17.30;;;;;;;7.40;80.96;101456.72;4939937;29;20044;-77
2023/04/09 02:33:50;;;;;;;28.17;15.07;;;;;;;7.26;81.89;101462.28;4935249;29;20044;-77
2023/04/09 02:36:16;;;;;;;25.30;13.65;;;;;;;7.28;81.65;101453.19;4936199;29;20035;-78
2023/04/09 02:38:42;;;;;;;17.33;10.27;;;;;;;7.22;81.48;101453.66;4926266;29;20587;-79
2023/04/09 02:41:09;;;;;;;14.75;8.82;;;;;;;7.04;82.15;101457.75;4914902;29;20047;-78
2023/04/09 02:43:35;;;;;;;15.15;8.00;;;;;;;6.88;82.92;101455.41;4934541;28;20044;-78
2023/04/09 02:46:01;;;;;;;12.95;7.53;;;;;;;6.94;82.26;101455.78;4923349;29;20065;-78
2023/04/09 02:48:27;;;;;;;12.52;7.78;;;;;;;6.91;82.05;101458.72;4920874;29;20178;-79
2023/04/09 02:50:54;;;;;;;11.65;6.55;;;;;;;6.70;82.40;101441.66;4934191;29;20159;-79
2023/04/09 02:53:23;;;;;;;12.18;7.03;;;;;;;6.59;83.38;101460.31;4921463;29;20132;-77
2023/04/09 02:55:51;;;;;;;12.98;6.80;;;;;;;6.64;83.16;101455.47;4931900;29;20047;-78
2023/04/09 02:58:17;;;;;;;13.13;6.88;;;;;;;6.38;84.27;101442.25;4932271;29;20035;-78
2023/04/09 03:00:43;;;;;;;11.48;6.78;;;;;;;6.15;84.69;101409.25;4945087;29;20460;-78
2023/04/09 03:03:09;;;;;;;11.52;6.40;;;;;;;6.33;84.51;101449.75;4937657;29;20047;-78
2023/04/09 03:05:35;;;;;;;13.57;7.10;;;;;;;6.27;84.56;101452.88;4919409;29;20062;-81
2023/04/09 03:08:01;;;;;;;10.30;6.50;;;;;;;6.18;84.64;101441.06;4939057;29;20051;-78
2023/04/09 03:10:26;;;;;;;11.60;7.43;;;;;;;6.19;84.75;101453.44;4908516;29;20055;-79
2023/04/09 03:12:53;;;;;;;12.73;7.07;;;;;;;6.34;84.06;101456.78;4904802;29;20413;-79
2023/04/09 03:15:20;;;;;;;14.75;8.50;;;;;;;6.12;85.04;101447.69;4923240;29;20361;-79
2023/04/09 03:17:45;;;;;;;14.48;7.93;;;;;;;6.18;84.91;101449.09;4936128;29;20421;-79
2023/04/09 03:20:12;;;;;;;15.20;8.93;;;;;;;6.16;84.92;101447.47;4920023;29;20051;-78
2023/04/09 03:22:41;;;;;;;15.40;8.57;;;;;;;6.12;84.82;101431.69;4939318;29;20119;-79
2023/04/09 03:25:07;;;;;;;19.27;10.60;;;;;;;5.96;85.39;101420.44;4927239;29;20047;-79
2023/04/09 03:27:34;;;;;;;24.50;12.07;;;;;;;6.18;85.75;101461.56;4940438;28;20043;-78
2023/04/09 03:30:01;;;;;;;22.88;12.48;;;;;;;6.16;86.04;101460.81;4941770;28;20047;-80
2023/04/09 03:32:28;;;;;;;22.90;12.55;;;;;;;6.19;86.04;101463.28;4941978;29;20043;-79
2023/04/09 03:34:53;;;;;;;24.40;13.00;;;;;;;6.06;86.51;101466.84;4940286;29;20039;-80
2023/04/09 03:37:19;;;;;;;29.40;14.55;;;;;;;6.11;86.26;101459.34;4942216;28;20039;-78
2023/04/09 03:39:46;;;;;;;26.55;13.23;;;;;;;6.18;86.34;101461.56;4938957;29;20044;-78
2023/04/09 03:42:11;;;;;;;28.75;13.82;;;;;;;6.11;86.16;101464.69;4939496;29;20492;-78
2023/04/09 03:44:38;;;;;;;30.63;15.03;;;;;;;6.06;86.12;101453.50;4936757;29;20058;-81
2023/04/09 03:47:04;;;;;;;31.10;13.65;;;;;;;6.03;86.53;101469.72;4937673;29;20306;-79
2023/04/09 03:49:34;;;;;;;25.48;14.20;;;;;;;6.17;86.43;101475.88;4937144;29;20048;-79
2023/04/09 03:51:59;;;;;;;34.13;14.35;;;;;;;6.16;86.23;101475.03;4941914;28;20042;-80
2023/04/09 03:54:28;;;;;;;31.17;14.67;;;;;;;6.08;86.66;101474.72;4942382;28;20156;-78
2023/04/09 03:56:55;;;;;;;25.85;13.10;;;;;;;5.98;86.66;101479.91;4893830;29;20327;-77
2023/04/09 03:59:21;;;;;;;15.02;9.13;;;;;;;6.01;85.48;101479.66;4935349;29;20058;-78
2023/04/09 04:01:47;;;;;;;;;;;;;;;5.90;83.98;101474.25;4920481;29;20145;-78
2023/04/09 04:04:13;;;;;;;18.63;7.47;;;;;;;5.69;83.69;101472.16;4933880;29;19922;-78
2023/04/09 04:06:38;;;;;;;9.57;5.47;;;;;;;5.65;83.20;101481.31;4907779;29;20051;-78
2023/04/09 04:09:04;;;;;;;9.23;5.25;;;;;;;5.60;82.89;101478.13;4932346;29;20076;-79
2023/04/09 04:11:30;;;;;;;10.60;4.82;;;;;;;5.55;82.70;101474.94;4917116;29;20571;-78
2023/04/09 04:13:56;;;;;;;8.25;4.70;;;;;;;5.58;82.44;101477.38;4905689;29;20071;-78
2023/04/09 04:16:22;;;;;;;7.78;4.97;;;;;;;5.65;82.04;101480.47;4914676;29;20508;-80
2023/04/09 04:18:48;;;;;;;6.93;4.43;;;;;;;5.63;82.18;101493.06;4922657;29;20059;-79
2023/04/09 04:21:15;;;;;;;6.47;4.33;;;;;;;5.49;81.40;101459.34;4918839;29;20051;-78
2023/04/09 04:23:40;;;;;;;7.45;4.10;;;;;;;5.69;80.91;101496.16;4918116;29;20287;-79
2023/04/09 04:26:09;;;;;;;7.25;4.03;;;;;;;5.71;80.84;101491.56;4918012;29;20059;-78
2023/04/09 04:28:36;;;;;;;6.70;4.30;;;;;;;5.64;80.73;101484.09;4902118;29;20044;-78
2023/04/09 04:31:01;;;;;;;9.07;4.03;;;;;;;5.82;80.05;101495.28;4902485;29;20122;-78
2023/04/09 04:33:27;;;;;;;12.02;4.43;;;;;;;5.71;79.94;101478.22;4889926;29;20130;-79
2023/04/09 04:35:52;;;;;;;7.43;4.27;;;;;;;5.69;80.18;101487.31;4935439;29;20129;-78
2023/04/09 04:38:18;;;;;;;7.07;4.07;;;;;;;5.71;80.55;101486.22;4924083;29;20291;-78
2023/04/09 04:40:43;;;;;;;7.93;4.75;;;;;;;5.69;80.72;101493.50;4937346;29;20496;-79
2023/04/09 04:43:10;;;;;;;7.00;4.00;;;;;;;5.79;80.38;101476.81;4938592;28;20043;-79
2023/04/09 04:45:36;;;;;;;6.75;4.25;;;;;;;6.06;79.67;101485.53;4943955;29;20039;-78
2023/04/09 04:48:03;;;;;;;9.48;4.53;;;;;;;6.07;79.70;101489.06;4919039;29;20134;-78
2023/04/09 04:58:02;;;;;;;10.38;5.15;;;;;;;6.53;78.45;101491.88;4878572;29;20104;-80
2023/04/09 05:11:20;;;;;;;9.25;5.10;;;;;;;7.15;76.57;101495.22;4900575;29;20117;-78
2023/04/09 05:18:03;;;;;;;8.63;6.00;;;;;;;9.61;70.38;101494.66;4898276;29;20063;-78
2023/04/09 05:21:12;;;;;;;9.98;6.15;;;;;;;12.94;60.94;101488.44;4893061;29;20048;-78
2023/04/09 05:24:02;;;;;;;18.92;10.98;;;;;;;15.49;51.85;101488.22;4894512;29;20426;-79
2023/04/09 05:27:18;;;;;;;14.63;11.02;;;;;;;17.07;45.59;101487.06;4879280;29;20042;-78
2023/04/09 05:30:22;;;;;;;13.07;9.23;;;;;;;18.85;41.20;101498.84;4892925;29;20058;-78
2023/04/09 05:36:06;;;;;;;15.43;8.98;;;;;;;21.71;35.05;101483.50;4959927;29;20088;-79
2023/04/09 05:42:18;;;;;;;14.38;9.60;;;;;;;23.29;31.36;101485.53;4957701;28;20042;-79
2023/04/09 05:45:33;;;;;;;12.95;9.48;;;;;;;23.74;30.31;101488.06;4903647;29;20048;-79
2023/04/09 05:48:30;;;;;;;13.77;9.18;;;;;;;23.98;29.68;101497.28;4844603;29;20057;-79
2023/04/09 05:51:25;;;;;;;15.15;10.05;;;;;;;24.20;29.84;101497.63;4965506;28;20043;-79
2023/04/09 05:56:58;;;;;;;27.13;10.40;;;;;;;23.33;30.01;101502.38;4953627;29;20070;-79
2023/04/09 06:00:35;;;;;;;11.40;7.28;;;;;;;21.72;32.22;101498.84;4941968;29;20048;-79
2023/04/09 06:03:45;;;;;;;22.75;12.18;;;;;;;21.13;33.87;101497.84;4936688;29;20040;-81
2023/04/09 06:06:48;;;;;;;12.05;9.10;;;;;;;20.98;34.83;101478.09;4927765;29;20031;-80
2023/04/09 06:09:47;;;;;;;11.23;7.40;;;;;;;20.83;34.32;101502.88;4955346;29;20048;-78
2023/04/09 06:12:41;;;;;;;10.27;6.60;;;;;;;20.60;35.03;101508.72;4960777;29;20079;-78
2023/04/09 06:16:07;;;;;;;6.50;5.30;;;;;;;19.93;35.69;101508.44;4951229;28;20070;-80
2023/04/09 06:19:35;;;;;;;6.47;5.18;;;;;;;19.89;36.13;101511.78;4881720;29;20033;-82
2023/04/09 06:22:44;;;;;;;6.13;5.35;;;;;;;19.76;36.40;101499.75;4877426;29;20056;-83
2023/04/09 06:28:47;;;;;;;8.45;6.18;;;;;;;19.23;38.22;101523.91;4790927;29;20070;-82
2023/04/09 06:31:17;;;;;;;7.85;5.72;;;;;;;17.83;40.60;101522.31;4782052;29;20039;-80
2023/04/09 06:33:50;;;;;;;8.63;6.30;;;;;;;17.37;41.94;101527.88;4807083;29;20069;-82
2023/04/09 06:36:20;;;;;;;9.50;6.27;;;;;;;17.30;42.51;101525.06;4852861;29;20052;-85
2023/04/09 06:39:16;;;;;;;7.50;5.80;;;;;;;17.06;43.47;101523.38;4869159;29;20066;-85
2023/04/09 06:41:47;;;;;;;12.63;6.60;;;;;;;16.80;44.21;101533.78;4857584;29;20064;-84
2023/04/09 06:48:21;;;;;;;11.23;6.30;;;;;;;16.70;44.75;101514.16;4860433;29;20048;-88
2023/04/09 06:50:47;;;;;;;10.50;6.60;;;;;;;16.64;45.21;101532.84;4868425;29;20476;-89
2023/04/09 06:53:53;;;;;;;9.52;6.30;;;;;;;16.81;45.18;101533.63;4851934;29;20076;-84
2023/04/09 07:08:06;;;;;;;7.43;5.55;;;;;;;16.31;47.81;101534.06;4972898;23;20107;-88
2023/04/09 07:10:33;;;;;;;10.38;6.45;;;;;;;16.31;48.05;101525.91;4917161;29;20048;-88
2023/04/09 07:13:00;;;;;;;7.10;5.22;;;;;;;15.67;48.35;101501.56;4936608;29;20043;-92
2023/04/09 07:15:26;;;;;;;7.00;5.22;;;;;;;15.25;49.90;101508.94;4920656;29;20055;-85
2023/04/09 07:17:57;;;;;;;11.23;5.00;;;;;;;15.05;50.01;101504.88;4929661;29;20550;-90
2023/04/09 07:20:25;;;;;;;6.85;5.60;;;;;;;15.08;50.41;101502.69;4932040;29;20103;-90
2023/04/09 07:22:59;;;;;;;9.27;5.47;;;;;;;15.62;49.44;101488.53;4915102;29;20047;-87
2023/04/09 07:25:25;;;;;;;6.97;5.38;;;;;;;15.92;48.64;101516.78;4929917;29;20110;-86
2023/04/09 07:27:52;;;;;;;6.28;4.80;;;;;;;15.66;48.55;101511.53;4933016;29;20039;-88
2023/04/09 07:30:19;;;;;;;;;;;;;;;15.46;49.00;101521.09;4947451;29;20401;-89
2023/04/09 07:32:45;;;;;;;6.50;5.00;;;;;;;15.63;48.63;101503.78;4918264;29;19930;-89
2023/04/09 07:35:12;;;;;;;6.45;5.25;;;;;;;16.05;48.04;101516.19;4938990;29;20059;-84
2023/04/09 07:37:39;;;;;;;8.10;5.82;;;;;;;16.60;47.20;101509.81;4910361;29;20039;-83
2023/04/09 07:40:07;;;;;;;8.50;5.93;;;;;;;16.41;46.59;101500.25;4915186;29;20127;-83
2023/04/09 07:42:32;;;;;;;7.00;5.43;;;;;;;16.97;45.65;101510.91;4926740;29;20039;-83
2023/04/09 07:44:59;;;;;;;;;;;;;;;17.09;45.49;101520.31;4949843;29;20699;-83
2023/04/09 07:47:27;;;;;;;7.78;5.90;;;;;;;16.88;46.19;101522.88;4943572;29;19927;-81
2023/04/09 07:49:56;;;;;;;8.45;5.85;;;;;;;16.77;46.39;101515.13;4924852;29;20540;-80
2023/04/09 07:52:21;;;;;;;8.45;6.30;;;;;;;17.06;45.85;101523.38;4929231;29;20055;-83
2023/04/09 07:54:48;;;;;;;;;;;;;;;17.72;44.61;101522.75;4932583;29;20044;-81
2023/04/09 07:57:14;;;;;;;7.90;5.40;;;;;;;18.26;42.98;101525.19;4935479;29;19941;-81
2023/04/09 07:59:41;;;;;;;;;;;;;;;18.24;42.60;101531.84;4940507;29;20457;-81
2023/04/09 08:02:08;;;;;;;7.47;5.60;;;;;;;18.44;42.41;101526.66;4949053;29;19918;-81
2023/04/09 08:04:33;;;;;;;;;;;;;;;19.20;41.51;101524.31;4940969;29;20046;-80
2023/04/09 08:06:59;;;;;;;6.43;5.63;;;;;;;19.28;41.02;101531.50;4947123;29;19966;-81
2023/04/09 08:09:27;;;;;;;7.88;5.80;;;;;;;18.66;42.54;101531.09;4917323;29;20062;-82
2023/04/09 08:11:52;;;;;;;7.88;6.13;;;;;;;19.45;40.76;101532.03;4924712;29;20055;-83
2023/04/09 08:14:22;;;;;;;7.53;5.97;;;;;;;18.91;41.80;101526.13;4947964;28;20043;-81
2023/04/09 08:16:49;;;;;;;6.40;4.90;;;;;;;19.22;40.89;101537.72;4949150;29;20047;-82
2023/04/09 08:19:15;;;;;;;5.63;4.63;;;;;;;19.40;40.86;101532.63;4920055;29;20074;-80
2023/04/09 08:21:43;;;;;;;6.03;4.43;;;;;;;19.28;40.47;101536.94;4948712;29;20035;-83
2023/04/09 08:24:11;;;;;;;5.13;4.50;;;;;;;19.92;38.85;101511.38;4947739;29;20054;-82
2023/04/09 08:26:39;;;;;;;7.00;4.55;;;;;;;19.48;39.46;101505.22;4943158;29;20059;-83
2023/04/09 08:29:08;;;;;;;6.07;4.53;;;;;;;20.71;37.55;101505.38;4929820;29;20441;-83
2023/04/09 08:31:43;;;;;;;5.28;4.18;;;;;;;21.79;35.00;101512.50;4923445;29;20048;-81
2023/04/09 08:34:11;;;;;;;5.00;4.13;;;;;;;21.48;35.60;101534.03;4930580;29;20043;-84
2023/04/09 08:36:41;;;;;;;6.90;4.90;;;;;;;22.41;33.93;101508.31;4945770;29;20052;-82
2023/04/09 08:39:08;;;;;;;4.15;3.72;;;;;;;22.37;33.60;101531.72;4930048;29;20229;-83
2023/04/09 08:41:36;;;;;;;4.90;4.30;;;;;;;21.83;34.27;101535.66;4916007;29;20074;-81
2023/04/09 08:44:03;;;;;;;4.97;4.40;;;;;;;21.89;34.38;101526.56;4949443;29;20035;-80
2023/04/09 08:46:30;;;;;;;5.20;4.47;;;;;;;22.50;33.65;101537.13;4913686;29;20406;-83
2023/04/09 08:48:55;;;;;;;6.63;4.90;;;;;;;22.71;33.35;101515.91;4915042;29;20103;-84
2023/04/09 08:51:22;;;;;;;5.32;4.82;;;;;;;23.00;32.61;101530.09;4933004;29;20051;-83
2023/04/09 08:53:55;;;;;;;8.75;4.72;;;;;;;23.89;31.33;101528.84;4933132;29;20480;-81
2023/04/09 08:56:21;;;;;;;5.57;4.30;;;;;;;23.65;31.22;101521.47;4947341;29;20460;-82
2023/04/09 08:58:48;;;;;;;4.93;4.43;;;;;;;24.17;31.09;101524.72;4936244;29;20047;-83
2023/04/09 09:01:23;;;;;;;5.57;4.70;;;;;;;24.61;30.13;101523.53;4915507;29;20135;-85
2023/04/09 09:03:56;;;;;;;5.68;4.93;;;;;;;25.16;29.85;101521.63;4942535;29;20228;-81
2023/04/09 09:06:27;;;;;;;6.10;5.45;;;;;;;24.96;29.54;101514.53;4945365;29;20039;-82
2023/04/09 09:09:09;;;;;;;5.20;4.70;;;;;;;25.40;28.67;101522.50;4917423;29;20114;-81
2023/04/09 09:12:00;;;;;;;5.50;4.82;;;;;;;25.39;28.61;101507.91;4932384;29;20039;-81
2023/04/09 09:14:26;;;;;;;5.60;4.80;;;;;;;24.97;28.92;101518.13;4936424;29;20058;-82
2023/04/09 09:16:57;;;;;;;5.22;4.50;;;;;;;24.83;29.21;101514.75;4928850;29;20576;-81
2023/04/09 09:19:23;;;;;;;5.20;4.70;;;;;;;26.47;27.40;101518.50;4946775;29;20057;-82
2023/04/09 09:21:58;;;;;;;5.30;4.78;;;;;;;26.82;26.53;101495.44;4943745;29;20230;-82
2023/04/09 09:24:24;;;;;;;5.53;4.68;;;;;;;25.30;28.02;101517.59;4931753;29;20043;-83
2023/04/09 09:26:56;;;;;;;6.40;5.10;;;;;;;25.81;27.75;101502.25;4949591;29;20487;-82
2023/04/09 09:29:21;;;;;;;5.95;5.35;;;;;;;26.44;26.35;101511.56;4917101;29;20404;-82
2023/04/09 09:31:50;;;;;;;5.80;5.13;;;;;;;26.62;26.38;101506.94;4929792;29;20050;-82
2023/04/09 09:34:18;;;;;;;6.03;5.43;;;;;;;25.29;27.71;101513.19;4933625;29;20106;-82
2023/04/09 09:36:44;;;;;;;6.30;5.70;;;;;;;26.11;27.02;101499.34;4912748;29;20058;-82
2023/04/09 09:39:11;;;;;;;6.50;5.80;;;;;;;27.10;26.10;101506.41;4936225;29;20819;-81
2023/04/09 09:41:37;;;;;;;6.07;5.47;;;;;;;28.68;23.89;101512.44;4933166;29;20063;-82
2023/04/09 09:44:05;;;;;;;8.23;5.60;;;;;;;29.33;23.45;101504.97;4917366;29;20468;-83
2023/04/09 09:46:37;;;;;;;6.38;5.10;;;;;;;30.69;21.42;101491.13;4929006;29;20077;-84
2023/04/09 09:49:03;;;;;;;6.50;5.38;;;;;;;29.94;21.97;101490.63;4916648;29;20123;-84
2023/04/09 09:51:31;;;;;;;5.22;4.72;;;;;;;30.34;21.29;101488.31;4927052;29;20094;-84
2023/04/09 09:53:57;;;;;;;6.22;5.63;;;;;;;29.88;22.11;101475.94;4950873;29;20125;-85
2023/04/09 09:56:31;;;;;;;5.95;5.35;;;;;;;29.18;22.75;101489.09;4934078;29;20134;-84
2023/04/09 09:59:22;;;;;;;6.50;5.80;;;;;;;28.59;23.19;101492.72;4934044;29;20059;-83
2023/04/09 10:01:56;;;;;;;6.78;6.03;;;;;;;29.39;22.33;101456.00;4930247;29;20040;-84
2023/04/09 10:04:21;;;;;;;6.38;5.65;;;;;;;27.64;24.49;101482.94;4937898;29;20474;-88
2023/04/09 10:06:47;;;;;;;6.68;5.72;;;;;;;28.33;23.57;101476.91;4921228;29;20481;-88
2023/04/09 10:09:12;;;;;;;6.20;5.50;;;;;;;28.41;23.28;101477.28;4906291;29;20060;-85
2023/04/09 10:11:41;;;;;;;6.70;5.32;;;;;;;29.07;22.49;101476.25;4938008;29;20393;-89
2023/04/09 10:14:06;;;;;;;7.90;6.13;;;;;;;28.19;24.37;101482.03;4919132;29;20153;-85
2023/04/09 10:16:39;;;;;;;6.10;5.43;;;;;;;29.03;22.64;101480.63;4948173;29;20107;-85
2023/04/09 10:19:08;;;;;;;5.82;5.22;;;;;;;28.08;23.49;101485.75;4947018;28;20082;-85
2023/04/09 10:21:42;;;;;;;5.72;5.13;;;;;;;29.34;22.78;101491.97;4934098;28;20051;-85
2023/04/09 10:24:08;;;;;;;5.88;5.20;;;;;;;28.38;23.83;101488.88;4935210;28;20099;-88
2023/04/09 10:26:39;;;;;;;6.45;5.75;;;;;;;28.83;23.55;101481.31;4916284;28;20490;-86
2023/04/09 10:29:07;;;;;;;6.20;5.20;;;;;;;29.13;23.22;101458.59;4949565;28;20133;-86
2023/04/09 10:32:05;;;;;;;6.53;5.93;;;;;;;27.53;25.16;101479.19;4906399;28;20130;-85
2023/04/09 10:34:43;;;;;;;6.30;5.70;;;;;;;27.26;25.74;101476.34;4951293;28;20047;-85
2023/04/09 10:37:15;;;;;;;5.97;5.35;;;;;;;25.94;27.57;101483.81;4933876;29;20047;-83
2023/04/09 10:39:47;;;;;;;6.55;5.80;;;;;;;27.17;25.76;101485.00;4933760;29;20145;-85
2023/04/09 10:42:15;;;;;;;6.18;5.50;;;;;;;27.99;24.80;101479.84;4949793;29;20463;-84
2023/04/09 10:44:41;;;;;;;7.05;5.15;;;;;;;28.06;24.98;101476.88;4912904;29;20146;-85
2023/04/09 10:47:10;;;;;;;5.30;4.80;;;;;;;28.50;24.65;101474.91;4947026;29;20054;-85
2023/04/09 10:49:40;;;;;;;6.68;5.38;;;;;;;26.48;26.23;101456.75;4913301;29;20043;-86
2023/04/09 10:52:29;;;;;;;6.18;5.55;;;;;;;26.04;27.12;101453.72;4933838;29;20157;-84
2023/04/09 10:54:56;;;;;;;8.05;6.07;;;;;;;24.70;29.63;101462.69;4921950;29;20043;-83
2023/04/09 10:57:23;;;;;;;6.57;5.93;;;;;;;25.22;29.11;101455.50;4947862;29;20071;-85
2023/04/09 10:59:54;;;;;;;6.60;5.90;;;;;;;25.24;29.21;101455.28;4944348;29;20102;-84
2023/04/09 11:02:40;;;;;;;7.60;6.25;;;;;;;25.47;28.92;101441.50;4948476;29;20443;-84
2023/04/09 11:05:28;;;;;;;9.38;5.85;;;;;;;26.61;27.69;101450.97;4947586;28;20062;-83
2023/04/09 11:08:11;;;;;;;6.85;5.70;;;;;;;24.86;29.26;101434.50;4933125;29;20047;-85
2023/04/09 11:10:44;;;;;;;6.28;5.65;;;;;;;23.80;31.05;101442.38;4935921;29;20138;-85
2023/04/09 11:13:16;;;;;;;6.28;5.60;;;;;;;23.32;31.94;101440.34;4926254;29;20102;-83
2023/04/09 11:15:44;;;;;;;5.72;5.07;;;;;;;21.70;34.58;101444.34;4932661;29;20143;-83
2023/04/09 11:18:35;;;;;;;8.02;5.97;;;;;;;23.41;32.56;101438.97;4933132;29;20039;-82
2023/04/09 11:21:05;;;;;;;7.18;6.18;;;;;;;22.40;33.49;101424.41;4944196;29;20059;-84
2023/04/09 11:23:33;;;;;;;6.63;5.93;;;;;;;22.24;33.39;101425.81;4948435;29;20087;-83
2023/04/09 11:26:00;;;;;;;6.85;6.15;;;;;;;20.83;36.04;101426.34;4913392;29;20047;-82
2023/04/09 11:28:26;;;;;;;5.97;5.38;;;;;;;19.26;39.16;101419.06;4927244;29;20134;-78
2023/04/09 11:30:51;;;;;;;7.05;5.97;;;;;;;19.38;39.49;101428.38;4946620;29;20519;-81
2023/04/09 11:33:17;;;;;;;7.05;5.78;;;;;;;19.70;39.02;101404.25;4948057;29;20042;-81
2023/04/09 11:35:42;;;;;;;7.97;6.20;;;;;;;19.21;39.86;101427.00;4930777;29;20437;-80
2023/04/09 11:38:09;;;;;;;6.40;5.80;;;;;;;19.25;39.80;101420.97;4930693;29;20058;-78
2023/04/09 11:40:35;;;;;;;8.50;5.80;;;;;;;17.86;42.22;101412.28;4917232;29;20048;-80
2023/04/09 11:43:02;;;;;;;;;;;;;;;18.25;41.29;101411.06;4933295;29;20100;-79
2023/04/09 11:45:29;;;;;;;7.68;6.05;;;;;;;18.08;41.18;101386.00;4920351;29;19962;-78
2023/04/09 11:47:56;;;;;;;10.27;6.78;;;;;;;18.30;41.54;101411.31;4930777;29;20055;-81
2023/04/09 11:50:23;;;;;;;7.35;6.03;;;;;;;18.54;40.38;101401.91;4916040;29;20063;-80
2023/04/09 11:52:49;;;;;;;7.55;6.38;;;;;;;18.31;41.07;101411.16;4944257;29;20050;-78
2023/04/09 11:55:31;;;;;;;7.30;5.90;;;;;;;17.47;43.53;101403.41;4933644;29;20047;-79
2023/04/09 11:57:59;;;;;;;8.02;6.30;;;;;;;17.06;44.36;101392.97;4935483;29;20405;-81
2023/04/09 12:00:26;;;;;;;7.00;5.60;;;;;;;17.29;44.43;101413.81;4930094;29;20035;-80
2023/04/09 12:03:02;;;;;;;7.80;6.07;;;;;;;17.01;44.91;101398.13;4936660;29;20067;-81
2023/04/09 12:05:30;;;;;;;7.75;5.97;;;;;;;16.64;45.29;101398.97;4917033;29;20039;-81
2023/04/09 12:08:05;;;;;;;7.60;6.20;;;;;;;16.86;45.53;101400.00;4924997;29;20391;-81
2023/04/09 12:10:33;;;;;;;9.00;5.75;;;;;;;16.70;45.16;101394.69;4934040;29;20079;-80
2023/04/09 12:13:07;;;;;;;7.00;5.40;;;;;;;16.50;45.97;101400.59;4936154;29;20144;-80
2023/04/09 12:15:36;;;;;;;7.50;6.43;;;;;;;16.12;47.44;101389.69;4920863;29;20038;-81
2023/04/09 12:18:02;;;;;;;7.95;6.40;;;;;;;16.21;47.66;101396.75;4925834;29;20044;-80
2023/04/09 12:20:28;;;;;;;;;;;;;;;16.57;46.26;101401.56;4927290;29;20049;-80
2023/04/09 12:22:55;;;;;;;6.85;5.68;;;;;;;15.93;47.68;101401.00;4951384;29;20005;-79
2023/04/09 12:25:20;;;;;;;7.28;5.22;;;;;;;15.74;46.99;101408.56;4945942;29;20043;-79
2023/04/09 12:27:47;;;;;;;7.38;5.68;;;;;;;14.92;49.80;101392.53;4914690;29;20063;-79
2023/04/09 12:30:13;;;;;;;6.50;5.28;;;;;;;14.58;50.56;101403.53;4927638;29;20043;-79
2023/04/09 12:32:39;;;;;;;7.95;5.78;;;;;;;14.24;51.12;101399.09;4932938;29;20569;-81
2023/04/09 12:35:04;;;;;;;7.38;5.78;;;;;;;13.95;52.07;101413.03;4931530;29;20039;-81
2023/04/09 12:37:31;;;;;;;8.43;6.30;;;;;;;13.88;54.00;101395.78;4929184;29;20130;-80